Concordia College, Minnesota
Current Conditions -  °F | °C
As of 2:53 AM on Thursday 18 Dec 2014 (Local Time) from KFAR Reporting Station
Clear Clear  
Wind Chill:   Ceiling: Unl
Heat Index: 10°   Visibility: 10mi
Dew Point:   Wind: 5mph
Humidity: 84%   Direction: 160°SSE
Pressure: 30.29"   Gusts: NA
Location:  46.8619°N, 96.7661°W
Report Text: KFAR 180853Z 16004KT 10SM CLR M12/M14 A3029 RMK AO2 SLP278 T11221144 56006
Loading
Personal Weather Stations






























Interactive Weather Map New forecast layout! Learn more

10-Day Weather Forecast

Advertisements
Track Severe Weather on mobile